createdAt,value
2022-08-31T00:04:03.117Z,83.80
2022-08-31T00:09:02.045Z,84.60
2022-08-31T00:14:02.972Z,85.20
2022-08-31T00:19:04.650Z,84.60
2022-08-31T00:24:03.069Z,85.00
2022-08-31T00:29:01.793Z,85.50
2022-08-31T00:34:00.131Z,85.40
2022-08-31T00:39:01.048Z,85.80
2022-08-31T00:44:01.750Z,87.00
2022-08-31T00:49:05.575Z,85.80
2022-08-31T00:54:07.504Z,86.60
2022-08-31T00:59:07.068Z,87.00
2022-08-31T01:04:05.936Z,87.10
2022-08-31T01:09:09.317Z,87.40
2022-08-31T01:14:12.023Z,86.70
2022-08-31T01:19:20.485Z,87.20
2022-08-31T01:24:28.604Z,87.20
2022-08-31T01:29:30.256Z,86.90
2022-08-31T01:34:30.595Z,86.60
2022-08-31T01:39:35.534Z,86.70
2022-08-31T01:44:35.396Z,87.00
2022-08-31T01:49:48.083Z,86.70
2022-08-31T01:55:17.423Z,87.60
2022-08-31T02:00:48.117Z,87.90
2022-08-31T02:06:15.617Z,88.80
2022-08-31T02:11:15.676Z,89.10
2022-08-31T02:16:14.367Z,88.50
2022-08-31T02:21:13.692Z,88.80
2022-08-31T02:26:12.880Z,89.00
2022-08-31T02:31:12.818Z,89.10
2022-08-31T02:36:18.384Z,90.10
2022-08-31T02:41:17.712Z,89.90
2022-08-31T02:46:17.440Z,90.00
2022-08-31T02:51:28.780Z,90.20
2022-08-31T02:56:27.076Z,90.30
2022-08-31T03:01:27.456Z,90.00
2022-08-31T03:06:25.825Z,90.10
2022-08-31T03:11:24.098Z,90.60
2022-08-31T03:16:23.014Z,90.80
2022-08-31T03:21:22.655Z,90.80
2022-08-31T03:26:20.908Z,91.10
2022-08-31T03:31:19.255Z,90.80
2022-08-31T03:36:18.721Z,90.70
2022-08-31T03:41:22.958Z,91.00
2022-08-31T03:46:21.786Z,90.90
2022-08-31T03:51:21.167Z,90.90
2022-08-31T03:56:21.370Z,91.00
2022-08-31T04:01:21.383Z,91.10
2022-08-31T04:06:37.982Z,90.90
2022-08-31T04:11:55.865Z,90.80
2022-08-31T04:17:26.070Z,91.10
2022-08-31T04:22:33.493Z,91.20
2022-08-31T04:28:12.227Z,91.20
2022-08-31T04:33:11.413Z,91.30
2022-08-31T04:38:12.057Z,91.20
2022-08-31T04:43:13.291Z,91.30
2022-08-31T04:48:11.920Z,91.60
2022-08-31T04:53:11.344Z,91.50
2022-08-31T04:58:09.836Z,91.10
2022-08-31T05:03:09.989Z,91.60
2022-08-31T05:08:08.757Z,91.90
2022-08-31T05:13:07.138Z,92.10
2022-08-31T05:18:05.595Z,91.90
2022-08-31T05:23:10.740Z,92.20
2022-08-31T05:28:09.553Z,92.40
2022-08-31T05:33:07.811Z,93.00
2022-08-31T05:38:06.196Z,93.30
2022-08-31T05:43:05.887Z,93.90
2022-08-31T05:48:04.723Z,94.00
2022-08-31T05:53:06.470Z,93.60
2022-08-31T05:58:07.489Z,93.50
2022-08-31T06:03:05.882Z,93.70
2022-08-31T06:08:04.464Z,93.70
2022-08-31T06:13:04.301Z,93.80
2022-08-31T06:18:04.776Z,93.70
2022-08-31T06:23:04.119Z,93.50
2022-08-31T06:28:14.385Z,93.30
2022-08-31T06:33:14.588Z,95.50
2022-08-31T06:38:39.189Z,97.70
2022-08-31T06:44:01.879Z,97.60
2022-08-31T06:49:13.528Z,97.50
2022-08-31T06:54:29.091Z,95.90
2022-08-31T06:59:46.665Z,97.10
2022-08-31T07:05:05.050Z,97.40
2022-08-31T07:10:05.009Z,95.50
2022-08-31T07:15:04.806Z,95.40
2022-08-31T07:20:05.939Z,96.20
2022-08-31T07:25:04.517Z,95.00
2022-08-31T07:30:02.936Z,94.10
2022-08-31T07:35:07.329Z,93.30
2022-08-31T07:40:43.155Z,92.80
2022-08-31T07:45:43.947Z,93.70
2022-08-31T07:50:47.690Z,91.90
2022-08-31T07:55:56.769Z,92.00
2022-08-31T08:01:07.923Z,91.90
2022-08-31T08:06:12.960Z,92.00
2022-08-31T08:11:49.805Z,91.70
2022-08-31T08:17:10.162Z,91.50
2022-08-31T08:22:35.669Z,90.90
2022-08-31T08:33:37.079Z,90.90
2022-08-31T08:38:39.310Z,87.70
2022-08-31T08:43:43.843Z,87.70
2022-08-31T08:48:46.294Z,86.70
2022-08-31T08:54:01.015Z,86.00
2022-08-31T08:59:09.930Z,86.60
2022-08-31T09:04:26.881Z,85.10
2022-08-31T09:09:43.026Z,84.40
2022-08-31T09:14:59.874Z,84.50
2022-08-31T09:20:01.686Z,82.90
2022-08-31T09:25:03.633Z,81.90
2022-08-31T09:30:38.353Z,80.40
2022-08-31T09:35:41.355Z,78.60
2022-08-31T09:40:45.228Z,77.70
2022-08-31T09:45:56.062Z,76.80
2022-08-31T09:51:02.509Z,76.80
2022-08-31T09:56:19.865Z,76.10
2022-08-31T10:01:25.706Z,76.50
2022-08-31T10:06:35.611Z,76.10
2022-08-31T10:11:36.544Z,76.40
2022-08-31T10:16:42.671Z,74.30
2022-08-31T10:21:52.158Z,70.50
2022-08-31T10:27:01.956Z,72.60
2022-08-31T10:32:06.049Z,72.20
2022-08-31T10:37:09.997Z,71.10
2022-08-31T10:42:16.311Z,70.20
2022-08-31T10:47:32.618Z,68.20
2022-08-31T10:52:35.800Z,65.70
2022-08-31T10:57:40.211Z,67.80
2022-08-31T11:02:51.462Z,68.30
2022-08-31T11:07:58.062Z,66.70
2022-08-31T11:13:06.741Z,64.30
2022-08-31T11:18:28.775Z,65.10
2022-08-31T11:23:45.778Z,63.50
2022-08-31T11:28:49.309Z,62.70
2022-08-31T11:34:14.196Z,62.30
2022-08-31T11:39:37.054Z,63.20
2022-08-31T11:45:02.286Z,63.00
2022-08-31T11:50:03.957Z,62.90
2022-08-31T11:55:27.129Z,64.30
2022-08-31T12:00:44.046Z,64.10
2022-08-31T12:05:54.292Z,63.20
2022-08-31T12:10:59.615Z,61.10
2022-08-31T12:16:22.910Z,60.90
2022-08-31T12:21:44.487Z,62.80
2022-08-31T12:27:08.697Z,60.10
2022-08-31T12:32:21.446Z,59.80
2022-08-31T12:37:22.653Z,60.50
2022-08-31T12:42:21.373Z,59.10
2022-08-31T12:47:30.623Z,59.20
2022-08-31T12:52:43.347Z,56.80
2022-08-31T12:57:52.599Z,58.70
2022-08-31T13:02:55.508Z,58.20
2022-08-31T13:07:54.784Z,58.50
2022-08-31T13:12:54.835Z,56.20
2022-08-31T13:17:55.105Z,56.30
2022-08-31T13:23:02.407Z,57.00
2022-08-31T13:28:01.078Z,57.70
2022-08-31T13:33:06.079Z,57.10
2022-08-31T13:38:06.147Z,56.30
2022-08-31T13:43:07.166Z,55.40
2022-08-31T13:48:12.507Z,56.00
2022-08-31T13:53:36.110Z,57.40
2022-08-31T13:58:31.155Z,56.80
2022-08-31T14:03:46.696Z,57.70
2022-08-31T14:08:49.991Z,58.60
2022-08-31T14:13:50.429Z,58.60
2022-08-31T14:18:56.022Z,58.10
2022-08-31T14:24:00.582Z,57.70
2022-08-31T14:29:01.278Z,58.50
2022-08-31T14:34:22.459Z,57.80
2022-08-31T14:39:27.007Z,57.80
2022-08-31T14:44:28.180Z,57.50
2022-08-31T14:49:30.649Z,56.80
2022-08-31T14:54:37.093Z,57.40
2022-08-31T14:59:36.055Z,57.30
2022-08-31T15:04:38.013Z,57.10
2022-08-31T15:09:40.954Z,56.30
2022-08-31T15:14:39.849Z,56.50
2022-08-31T15:19:40.697Z,56.50
2022-08-31T15:24:44.756Z,57.00
2022-08-31T15:29:45.549Z,56.60
2022-08-31T15:34:51.216Z,57.70
2022-08-31T15:39:50.699Z,57.80
2022-08-31T15:44:55.625Z,58.20
2022-08-31T15:49:58.377Z,58.20
2022-08-31T15:54:57.096Z,58.70
2022-08-31T15:59:55.407Z,58.40
2022-08-31T16:04:57.726Z,58.50
2022-08-31T16:09:56.219Z,58.20
2022-08-31T16:14:55.093Z,58.50
2022-08-31T16:19:54.784Z,58.70
2022-08-31T16:24:53.198Z,59.10
2022-08-31T16:29:52.127Z,59.50
2022-08-31T16:34:50.371Z,59.20
2022-08-31T16:39:50.025Z,60.00
2022-08-31T16:44:48.690Z,61.10
2022-08-31T16:49:47.269Z,61.70
2022-08-31T16:54:48.578Z,62.50
2022-08-31T16:59:49.372Z,61.80
2022-08-31T17:04:53.334Z,61.80
2022-08-31T17:09:55.922Z,61.50
2022-08-31T17:14:56.033Z,61.80
2022-08-31T17:19:56.149Z,61.40
2022-08-31T17:24:57.572Z,62.00
2022-08-31T17:30:00.703Z,62.80
2022-08-31T17:34:59.305Z,63.20
2022-08-31T17:39:57.965Z,63.50
2022-08-31T17:44:58.876Z,63.80
2022-08-31T17:49:57.144Z,64.30
2022-08-31T17:54:56.484Z,65.00
2022-08-31T17:59:57.016Z,65.50
2022-08-31T18:04:55.620Z,66.00
2022-08-31T18:09:53.906Z,66.40
2022-08-31T18:14:53.656Z,66.50
2022-08-31T18:19:55.322Z,67.10
2022-08-31T18:24:53.716Z,67.90
2022-08-31T18:29:56.225Z,67.10
2022-08-31T18:34:57.410Z,67.50
2022-08-31T18:40:14.354Z,68.00
2022-08-31T18:45:19.841Z,68.30
2022-08-31T18:50:19.659Z,69.20
2022-08-31T18:55:17.976Z,69.60
2022-08-31T19:00:17.713Z,70.20
2022-08-31T19:05:16.530Z,70.20
2022-08-31T19:10:16.363Z,70.70
2022-08-31T19:15:14.662Z,71.00
2022-08-31T19:20:13.810Z,71.20
2022-08-31T19:25:13.044Z,71.80
2022-08-31T19:30:14.261Z,71.90
2022-08-31T19:35:12.548Z,72.20
2022-08-31T19:40:17.789Z,72.30
2022-08-31T19:45:40.748Z,72.80
2022-08-31T19:50:41.593Z,72.40
2022-08-31T19:55:50.179Z,72.80
2022-08-31T20:00:50.357Z,72.90
2022-08-31T20:05:48.842Z,73.60
2022-08-31T20:10:47.593Z,74.20
2022-08-31T20:15:46.222Z,73.80
2022-08-31T20:20:48.390Z,74.40
2022-08-31T20:25:49.285Z,73.20
2022-08-31T20:30:48.426Z,74.30
2022-08-31T20:35:48.621Z,74.20
2022-08-31T20:40:52.223Z,75.00
2022-08-31T20:45:50.682Z,75.20
2022-08-31T20:50:50.830Z,75.20
2022-08-31T20:55:50.687Z,75.10
2022-08-31T21:00:51.273Z,75.10
2022-08-31T21:05:51.250Z,73.90
2022-08-31T21:10:49.596Z,75.20
2022-08-31T21:15:48.172Z,76.00
2022-08-31T21:20:47.207Z,75.60
2022-08-31T21:25:47.764Z,75.80
2022-08-31T21:30:48.988Z,75.20
2022-08-31T21:35:47.730Z,76.20
2022-08-31T21:40:51.237Z,76.30
2022-08-31T21:45:55.007Z,76.10
2022-08-31T21:50:54.939Z,76.60
2022-08-31T21:55:54.900Z,76.90
2022-08-31T22:00:55.459Z,76.70
2022-08-31T22:05:54.301Z,76.70
2022-08-31T22:10:54.897Z,77.40
2022-08-31T22:15:53.807Z,77.50
2022-08-31T22:20:52.278Z,78.00
2022-08-31T22:25:52.665Z,78.00
2022-08-31T22:30:53.194Z,77.90
2022-08-31T22:35:51.626Z,78.50
2022-08-31T22:40:50.053Z,78.80
2022-08-31T22:45:49.504Z,79.10
2022-08-31T22:50:49.189Z,78.60
2022-08-31T22:55:47.518Z,79.20
2022-08-31T23:00:48.349Z,79.70
2022-08-31T23:05:51.977Z,79.40
2022-08-31T23:10:50.535Z,79.40
2022-08-31T23:15:50.017Z,79.60
2022-08-31T23:20:49.724Z,80.00
2022-08-31T23:25:47.970Z,80.30
2022-08-31T23:30:46.674Z,80.90
2022-08-31T23:35:47.210Z,80.70
2022-08-31T23:40:47.030Z,80.90
2022-08-31T23:45:45.371Z,81.10
2022-08-31T23:50:44.849Z,80.60
2022-08-31T23:55:44.746Z,81.30
